トロムソ の空港の天気 - METARとTAF

トロムソ空港 ( ENTC / TOS ) - ノルウェー トロムス県トロムソ
飛行場実況気象(Metar)
観測時間07/22 20:20 CEST (07/22 18:20 UTC)
風向・風速東 2m/s
視程10km以上
天気現象
全天を覆う雲 雲底高度 1310m
気温13℃
湿度82%
気圧1005hPa
METARENTC 221820Z 09004KT 050V150 9999 OVC043 13/10 Q1005 NOSIG RMK WIND 2600FT 17004KT
過去の天気等 Google飛行場航空写真 Wunderground天気予報

過去48時間のMETAR

飛行場予報(TAF)
発表時間: -
23日10時 CEST ~ 23日12時 CEST に徐々に
風向・風速南南西 6m/s
TAF ENTC 2218/2318 VRB05KT 9999 FEW010 BKN040
BECMG 2308/2310 20012KT